Time;durP1;ratioP1;P1;durP2;ratioP2;P2;SDS_P1;SDS_P2;PMS_P1;PMS_P2;Temp;Humidity;BMP_temperature;BMP_pressure;BME280_temperature;BME280_humidity;BME280_pressure;Samples;Min_cycle;Max_cycle;Signal;HPM_P1;HPM_P2
2022/11/10 00:01:18;;;;;;;9.43;5.10;;;3.30;99.90;4.50;96981.00;;;;5083548;28;20461;-69
2022/11/10 00:04:06;;;;;;;9.47;5.50;;;3.50;99.90;4.40;96984.00;;;;5084586;28;20500;-69
2022/11/10 00:06:56;;;;;;;9.10;4.50;;;3.50;99.90;4.10;96978.00;;;;5087289;28;20504;-72
2022/11/10 00:09:45;;;;;;;3.93;3.17;;;3.70;99.90;3.70;96980.00;;;;5072126;28;20983;-72
2022/11/10 00:12:34;;;;;;;5.33;3.87;;;3.40;99.90;3.60;96990.00;;;;5085825;28;20418;-67
2022/11/10 00:18:30;;;;;;;6.73;4.40;;;3.20;99.90;3.90;96993.00;;;;5073013;28;20542;-73
2022/11/10 00:21:19;;;;;;;5.13;3.67;;;3.10;99.90;3.80;96992.00;;;;5071652;28;20883;-71
2022/11/10 00:24:09;;;;;;;4.10;3.17;;;3.20;99.90;3.90;96987.00;;;;5072618;28;20419;-71
2022/11/10 00:26:58;;;;;;;4.90;3.63;;;3.20;99.90;4.00;96991.00;;;;5085872;28;20429;-68
2022/11/10 00:29:46;;;;;;;5.63;4.43;;;3.30;99.90;3.80;96993.00;;;;5072079;28;20465;-67
2022/11/10 00:32:35;;;;;;;5.47;3.53;;;3.30;99.90;3.60;96998.00;;;;5084382;28;20799;-68
2022/11/10 00:35:24;;;;;;;6.27;4.07;;;3.20;99.90;4.20;97003.00;;;;5078696;28;21010;-70
2022/11/10 00:38:12;;;;;;;4.87;4.37;;;3.30;99.90;4.20;97000.00;;;;5071773;28;20534;-70
2022/11/10 00:41:03;;;;;;;5.53;4.40;;;3.40;99.90;4.00;97006.00;;;;5080572;28;20461;-69
2022/11/10 00:43:52;;;;;;;4.87;4.23;;;3.30;99.90;3.80;97003.00;;;;5088887;28;20895;-69
2022/11/10 00:46:40;;;;;;;5.90;3.43;;;3.20;99.90;3.60;96989.00;;;;5088189;28;20967;-68
2022/11/10 00:49:29;;;;;;;3.43;2.67;;;3.10;99.90;3.80;97001.00;;;;5091085;28;20472;-73
2022/11/10 00:52:18;;;;;;;5.33;4.43;;;3.10;99.90;3.70;96996.00;;;;5087174;28;20425;-69
2022/11/10 00:55:08;;;;;;;4.20;3.73;;;3.20;99.90;3.90;97003.00;;;;5082686;28;20941;-70
2022/11/10 00:57:58;;;;;;;5.50;3.60;;;3.50;99.90;3.90;97019.00;;;;5073695;28;20442;-71
2022/11/10 01:00:46;;;;;;;6.47;4.90;;;3.20;99.90;4.10;97026.00;;;;5085151;28;20472;-69
2022/11/10 01:03:36;;;;;;;4.17;3.47;;;3.40;99.90;4.10;97024.00;;;;5072521;28;20423;-69
2022/11/10 01:06:25;;;;;;;6.00;2.80;;;3.30;99.90;4.40;97018.00;;;;5077079;28;20425;-69
2022/11/10 01:09:14;;;;;;;6.43;4.73;;;3.40;99.90;4.20;97010.00;;;;5083563;28;20439;-69
2022/11/10 01:12:02;;;;;;;6.80;4.53;;;3.40;99.90;4.10;97019.00;;;;5081602;28;20442;-68
2022/11/10 01:14:52;;;;;;;5.33;3.97;;;3.50;99.90;3.90;97026.00;;;;5088578;28;20406;-69
2022/11/10 01:17:41;;;;;;;6.83;4.10;;;3.30;99.90;3.90;97015.00;;;;5071340;28;20457;-72
2022/11/10 01:20:30;;;;;;;6.17;4.53;;;3.40;99.90;3.90;97016.00;;;;5071078;28;20462;-69
2022/11/10 01:23:18;;;;;;;9.33;4.53;;;3.30;99.90;4.20;97025.00;;;;5070709;28;20418;-68
2022/11/10 01:26:08;;;;;;;4.27;3.87;;;3.40;99.90;4.10;97029.00;;;;5079498;28;20438;-69
2022/11/10 01:28:58;;;;;;;4.13;2.77;;;3.40;99.90;3.40;97024.00;;;;5077233;28;20521;-71
2022/11/10 01:31:48;;;;;;;5.33;3.07;;;3.30;99.90;3.60;97032.00;;;;5076543;28;20429;-71
2022/11/10 01:34:36;;;;;;;5.60;3.20;;;3.20;99.90;3.90;97042.00;;;;5084290;28;20936;-69
2022/11/10 01:37:25;;;;;;;3.20;2.87;;;3.10;99.90;4.30;97039.00;;;;5083294;28;20484;-69
2022/11/10 01:40:14;;;;;;;7.20;4.60;;;3.30;99.90;4.40;97039.00;;;;5072279;28;20461;-69
2022/11/10 01:43:03;;;;;;;6.37;3.20;;;3.40;99.90;3.50;97023.00;;;;5084011;28;20418;-68
2022/11/10 01:45:53;;;;;;;10.80;4.43;;;3.30;99.90;3.30;97032.00;;;;5073687;28;20418;-71
2022/11/10 01:48:48;;;;;;;4.17;2.83;;;3.10;99.90;3.90;97046.00;;;;5079908;28;20557;-69
2022/11/10 01:51:46;;;;;;;6.07;3.70;;;3.10;99.90;4.30;97052.00;;;;5082762;28;20988;-70
2022/11/10 01:54:39;;;;;;;4.27;3.23;;;3.30;99.90;4.40;97070.00;;;;5082164;28;20403;-69
2022/11/10 01:57:28;;;;;;;3.67;3.00;;;3.40;99.90;4.20;97068.00;;;;5070113;28;20435;-69
2022/11/10 02:00:17;;;;;;;4.13;2.57;;;3.40;99.90;3.90;97064.00;;;;5077415;28;20478;-71
2022/11/10 02:03:16;;;;;;;4.27;3.87;;;3.30;99.90;3.80;97070.00;;;;5071160;28;20435;-69
2022/11/10 02:06:07;;;;;;;3.70;2.90;;;3.20;99.90;4.20;97080.00;;;;5085879;28;20422;-69
2022/11/10 02:08:58;;;;;;;7.17;3.67;;;3.30;99.90;4.00;97081.00;;;;5079165;28;20484;-70
2022/11/10 02:11:47;;;;;;;5.80;3.43;;;3.30;99.90;4.10;97088.00;;;;5086968;28;20422;-69
2022/11/10 02:14:37;;;;;;;5.63;3.70;;;3.30;99.90;4.30;97084.00;;;;5090442;28;20429;-70
2022/11/10 02:17:26;;;;;;;3.53;3.23;;;3.40;99.90;3.60;97081.00;;;;5090965;28;20430;-71
2022/11/10 02:20:19;;;;;;;4.67;3.43;;;3.30;99.90;3.90;97096.00;;;;5088015;28;20457;-72
2022/11/10 02:23:20;;;;;;;3.47;2.97;;;3.30;99.90;3.80;97084.00;;;;5080474;28;20422;-70
2022/11/10 02:26:09;;;;;;;5.93;4.07;;;3.30;99.90;4.00;97080.00;;;;5080239;28;20429;-68
2022/11/10 02:28:58;;;;;;;5.97;4.27;;;3.30;99.90;4.20;97087.00;;;;5084551;28;20980;-69
2022/11/10 02:31:47;;;;;;;4.70;3.97;;;3.30;99.90;4.00;97092.00;;;;5078720;28;20436;-67
2022/11/10 02:34:35;;;;;;;3.87;3.33;;;3.40;99.90;3.80;97094.00;;;;5083543;28;20448;-71
2022/11/10 02:37:24;;;;;;;3.97;3.40;;;3.30;99.90;3.80;97089.00;;;;5089672;28;20421;-68
2022/11/10 02:40:15;;;;;;;3.77;3.13;;;3.30;99.90;3.90;97100.00;;;;5089049;28;20437;-69
2022/11/10 02:43:04;;;;;;;5.40;4.10;;;3.30;99.90;4.40;97105.00;;;;5082436;28;20456;-69
2022/11/10 02:45:53;;;;;;;5.90;4.40;;;3.30;99.90;4.70;97109.00;;;;5088048;28;20432;-69
2022/11/10 02:48:42;;;;;;;6.43;3.57;;;3.60;99.90;4.60;97109.00;;;;5075979;28;20450;-69
2022/11/10 02:51:30;;;;;;;3.53;3.23;;;3.70;99.90;4.30;97099.00;;;;5080604;28;20421;-68
2022/11/10 02:54:19;;;;;;;5.07;4.37;;;3.70;99.90;4.40;97113.00;;;;5081007;28;20430;-68
2022/11/10 02:57:09;;;;;;;4.73;3.27;;;3.60;99.90;4.50;97113.00;;;;5069745;28;20430;-68
2022/11/10 02:59:58;;;;;;;4.80;2.40;;;3.60;99.90;4.10;97102.00;;;;5079966;28;20476;-72
2022/11/10 03:02:46;;;;;;;3.50;2.67;;;3.50;99.90;4.40;97106.00;;;;5073564;28;20836;-69
2022/11/10 03:05:35;;;;;;;4.63;3.23;;;5.60;99.90;4.70;97102.00;;;;5075782;28;20528;-68
2022/11/10 03:08:24;;;;;;;3.10;2.57;;;3.60;99.90;4.90;97112.00;;;;5086344;28;21037;-69
2022/11/10 03:11:13;;;;;;;3.20;2.90;;;3.80;99.90;4.40;97106.00;;;;5080525;28;20491;-69
2022/11/10 03:14:03;;;;;;;3.87;2.77;;;3.70;99.90;4.30;97104.00;;;;5078131;28;20944;-69
2022/11/10 03:16:52;;;;;;;4.80;3.77;;;3.60;99.90;4.40;97102.00;;;;5089186;28;20434;-69
2022/11/10 03:19:41;;;;;;;3.33;3.03;;;3.60;99.90;4.30;97114.00;;;;5088279;28;20438;-69
2022/11/10 03:22:29;;;;;;;8.67;3.43;;;3.50;99.90;4.10;97107.00;;;;5077276;28;20458;-69
2022/11/10 03:25:19;;;;;;;3.07;2.77;;;3.50;99.90;4.00;97105.00;;;;5070308;28;20427;-72
2022/11/10 03:28:08;;;;;;;3.23;2.03;;;;;3.40;97105.00;;;;5083069;28;20539;-71
2022/11/10 03:30:58;;;;;;;5.97;3.53;;;3.20;99.90;4.00;97113.00;;;;5081601;28;20948;-69
2022/11/10 03:33:47;;;;;;;3.33;2.37;;;3.30;99.90;4.00;97097.00;;;;5085183;28;20421;-69
2022/11/10 03:36:35;;;;;;;5.33;3.10;;;3.30;99.90;4.40;97123.00;;;;5079037;28;20877;-69
2022/11/10 03:39:24;;;;;;;3.93;2.57;;;3.40;99.90;4.20;97128.00;;;;5077252;28;20881;-69
2022/11/10 03:42:13;;;;;;;2.90;2.50;;;3.40;99.90;4.40;97139.00;;;;5077025;28;20550;-69
2022/11/10 03:45:02;;;;;;;5.47;2.63;;;3.50;99.90;4.40;97139.00;;;;5082620;28;20448;-69
2022/11/10 03:47:52;;;;;;;3.30;2.50;;;3.60;99.90;4.50;97143.00;;;;5075090;28;20425;-71
2022/11/10 03:50:41;;;;;;;4.63;3.73;;;3.60;99.90;4.70;97161.00;;;;5082204;28;20434;-69
2022/11/10 03:53:30;;;;;;;6.80;3.93;;;3.70;99.90;4.60;97160.00;;;;5086535;28;20418;-70
2022/11/10 03:56:19;;;;;;;4.70;3.00;;;3.80;99.90;4.50;97156.00;;;;5074994;28;20499;-72
2022/11/10 03:59:08;;;;;;;4.07;2.80;;;5.80;99.90;4.20;97165.00;;;;5082066;28;20469;-68
2022/11/10 04:01:57;;;;;;;3.30;2.90;;;3.70;99.90;4.60;97159.00;;;;5068267;28;20882;-73
2022/11/10 04:11:07;;;;;;;4.50;3.20;;;;;4.60;97171.00;;;;5075369;28;20439;-69
2022/11/10 04:17:03;;;;;;;4.73;2.77;;;3.80;99.90;4.40;97183.00;;;;5081782;28;21089;-71
2022/11/10 04:19:53;;;;;;;5.13;3.87;;;3.70;99.90;4.70;97177.00;;;;5068826;28;20482;-69
2022/11/10 04:28:53;;;;;;;2.83;2.40;;;3.80;99.90;4.50;97182.00;;;;5074055;28;20464;-72
2022/11/10 04:31:42;;;;;;;3.93;3.20;;;3.80;99.90;4.80;97193.00;;;;5080854;28;20465;-68
2022/11/10 04:34:31;;;;;;;7.87;3.80;;;3.90;99.90;4.80;97190.00;;;;5088851;28;20441;-68
2022/11/10 04:37:21;;;;;;;4.63;4.00;;;4.00;99.90;4.80;97192.00;;;;5089504;28;20422;-69
2022/11/10 04:40:11;;;;;;;6.13;3.83;;;4.00;99.90;5.30;97197.00;;;;5088303;28;20472;-69
2022/11/10 04:43:00;;;;;;;6.33;3.50;;;4.10;99.90;5.10;97194.00;;;;5082565;28;20599;-69
2022/11/10 04:45:49;;;;;;;3.90;3.53;;;5.40;99.90;4.60;97202.00;;;;5074172;28;20414;-69
2022/11/10 04:48:38;;;;;;;4.00;2.70;;;4.10;99.90;4.80;97210.00;;;;5077469;28;20434;-68
2022/11/10 04:51:29;;;;;;;3.90;3.33;;;5.40;99.90;5.10;97211.00;;;;5082560;28;20940;-68
2022/11/10 04:54:19;;;;;;;5.63;3.10;;;4.20;99.90;5.20;97215.00;;;;5081190;28;20814;-71
2022/11/10 04:57:08;;;;;;;3.63;2.13;;;4.30;99.90;5.30;97218.00;;;;5072279;28;20254;-68
2022/11/10 04:59:56;;;;;;;4.90;3.70;;;4.40;99.90;5.40;97213.00;;;;5070945;28;20260;-68
2022/11/10 05:02:45;;;;;;;4.63;3.80;;;4.40;99.90;5.50;97227.00;;;;5081590;28;20492;-69
2022/11/10 05:05:34;;;;;;;3.93;3.00;;;4.50;99.90;5.30;97222.00;;;;5080685;28;20419;-72
2022/11/10 05:08:23;;;;;;;3.13;2.30;;;4.50;99.90;5.10;97221.00;;;;5071684;28;20223;-72
2022/11/10 05:11:13;;;;;;;5.63;3.93;;;4.50;99.90;5.50;97229.00;;;;5083093;28;20486;-69
2022/11/10 05:14:02;;;;;;;5.47;4.13;;;4.50;99.90;5.50;97224.00;;;;5091219;28;20312;-69
2022/11/10 05:16:51;;;;;;;5.30;3.63;;;4.50;99.90;5.70;97237.00;;;;5091502;28;20436;-69
2022/11/10 05:19:40;;;;;;;6.33;3.73;;;4.60;99.90;5.40;97235.00;;;;5089539;28;20441;-69
2022/11/10 05:22:28;;;;;;;5.80;4.03;;;4.60;99.90;5.70;97232.00;;;;5074883;28;20987;-68
2022/11/10 05:25:17;;;;;;;5.13;3.90;;;6.20;99.90;5.90;97235.00;;;;5082769;28;20207;-69
2022/11/10 05:28:10;;;;;;;5.23;3.40;;;4.90;99.90;5.50;97239.00;;;;5089751;28;20262;-69
2022/11/10 05:30:59;;;;;;;3.67;3.33;;;4.70;99.90;5.00;97235.00;;;;5080079;28;20281;-68
2022/11/10 05:33:48;;;;;;;6.37;3.00;;;4.60;99.90;5.20;97258.00;;;;5080923;28;20437;-71
2022/11/10 05:36:36;;;;;;;6.10;3.70;;;4.60;99.90;5.60;97262.00;;;;5082642;28;20195;-69
2022/11/10 05:39:25;;;;;;;5.30;3.77;;;4.60;99.90;5.80;97274.00;;;;5084101;28;20496;-69
2022/11/10 05:42:14;;;;;;;3.87;3.07;;;6.00;99.90;5.70;97269.00;;;;5073461;28;20219;-68
2022/11/10 05:45:06;;;;;;;4.67;4.17;;;4.70;99.90;5.60;97267.00;;;;5086568;28;20203;-68
2022/11/10 05:47:55;;;;;;;3.27;2.97;;;4.80;99.90;5.70;97277.00;;;;5074946;28;20203;-69
2022/11/10 05:50:45;;;;;;;5.60;4.13;;;4.70;99.90;5.70;97273.00;;;;5078164;28;20503;-69
2022/11/10 05:53:33;;;;;;;4.47;2.93;;;4.80;99.90;6.10;97277.00;;;;5084212;28;20200;-69
2022/11/10 05:56:22;;;;;;;7.07;4.47;;;6.40;99.90;6.00;97288.00;;;;5080283;28;20282;-69
2022/11/10 05:59:11;;;;;;;3.77;3.07;;;5.00;99.90;5.40;97290.00;;;;5078488;28;20212;-70
2022/11/10 06:02:01;;;;;;;3.47;3.17;;;5.00;99.90;5.80;97299.00;;;;5073376;28;20196;-69
2022/11/10 06:04:50;;;;;;;6.00;3.60;;;5.00;99.90;6.00;97309.00;;;;5080725;28;20709;-69
2022/11/10 06:07:39;;;;;;;5.77;3.77;;;5.00;99.90;6.00;97311.00;;;;5076297;28;20195;-68
2022/11/10 06:10:28;;;;;;;3.63;3.30;;;5.10;99.90;6.20;97314.00;;;;5089168;28;20204;-68
2022/11/10 06:13:17;;;;;;;3.90;2.77;;;5.90;99.90;5.50;97307.00;;;;5084698;28;20207;-71
2022/11/10 06:16:06;;;;;;;4.40;3.67;;;5.00;99.90;5.70;97321.00;;;;5079052;28;20686;-69
2022/11/10 06:18:56;;;;;;;4.60;3.33;;;4.90;99.90;5.80;97322.00;;;;5084419;28;20295;-68
2022/11/10 06:21:45;;;;;;;7.60;4.93;;;5.00;99.90;5.60;97332.00;;;;5086322;28;20244;-70
2022/11/10 06:24:34;;;;;;;4.20;2.63;;;5.00;99.90;5.70;97339.00;;;;5080698;28;20308;-70
2022/11/10 06:27:23;;;;;;;7.37;6.13;;;5.00;99.90;6.00;97351.00;;;;5087340;28;20678;-68
2022/11/10 06:30:22;;;;;;;7.83;4.47;;;4.90;99.90;6.30;97347.00;;;;5120067;27;20604;-67
2022/11/10 06:33:11;;;;;;;6.67;4.27;;;5.20;99.90;6.10;97365.00;;;;5101806;28;20250;-67
2022/11/10 06:36:00;;;;;;;5.83;4.13;;;5.20;99.90;6.70;97363.00;;;;5106090;28;20259;-67
2022/11/10 06:38:48;;;;;;;3.33;2.73;;;5.30;99.90;6.10;97364.00;;;;5098133;28;20214;-73
2022/11/10 06:41:37;;;;;;;4.37;3.97;;;5.30;99.90;6.10;97370.00;;;;5101729;28;20264;-67
2022/11/10 06:44:26;;;;;;;5.10;3.43;;;5.30;99.90;6.60;97370.00;;;;5101497;28;20204;-67
2022/11/10 06:47:17;;;;;;;7.00;4.07;;;5.40;99.90;6.60;97385.00;;;;5097600;28;20681;-67
2022/11/10 06:50:07;;;;;;;8.87;4.83;;;5.40;99.90;6.30;97387.00;;;;5101925;27;20308;-68
2022/11/10 06:52:57;;;;;;;6.90;4.23;;;5.40;99.90;6.20;97397.00;;;;5107562;28;20633;-66
2022/11/10 06:55:45;;;;;;;7.43;2.83;;;5.40;99.90;6.10;97398.00;;;;5092549;28;20203;-68
2022/11/10 06:58:34;;;;;;;9.83;3.73;;;5.40;99.90;6.20;97404.00;;;;5098606;28;20261;-67
2022/11/10 07:01:25;;;;;;;3.97;3.47;;;5.40;99.90;6.30;97415.00;;;;5108821;28;20207;-68
2022/11/10 07:04:15;;;;;;;3.60;3.00;;;5.40;99.90;6.20;97416.00;;;;5102948;28;20198;-68
2022/11/10 07:07:07;;;;;;;8.87;3.93;;;5.40;99.90;6.40;97431.00;;;;5098873;28;20195;-67
2022/11/10 07:09:56;;;;;;;3.77;3.37;;;5.50;99.90;6.20;97428.00;;;;5111096;28;20226;-68
2022/11/10 07:12:46;;;;;;;5.13;3.90;;;5.50;99.90;6.60;97438.00;;;;5091633;28;21158;-66
2022/11/10 07:15:35;;;;;;;4.83;3.83;;;5.60;99.90;6.70;97444.00;;;;5105667;28;20245;-67
2022/11/10 07:18:24;;;;;;;4.37;3.97;;;5.70;99.90;6.70;97448.00;;;;5106542;28;20273;-68
2022/11/10 07:21:14;;;;;;;4.43;3.67;;;5.80;99.90;7.30;97445.00;;;;5099587;28;20203;-67
2022/11/10 07:24:03;;;;;;;8.13;3.77;;;5.90;99.90;7.80;97461.00;;;;5105853;28;20207;-67
2022/11/10 07:26:51;;;;;;;8.60;4.43;;;6.10;99.90;7.70;97453.00;;;;5103963;28;20231;-67
2022/11/10 07:29:40;;;;;;;4.93;4.40;;;6.30;99.90;7.70;97457.00;;;;5110531;28;20761;-67
2022/11/10 07:32:29;;;;;;;6.20;3.77;;;6.40;99.90;7.50;97461.00;;;;5125437;28;20586;-70
2022/11/10 07:35:17;;;;;;;6.60;3.83;;;6.50;99.90;7.60;97466.00;;;;5115109;27;20229;-70
2022/11/10 07:38:11;;;;;;;5.67;3.73;;;6.30;99.90;7.40;97464.00;;;;5123109;27;20274;-70
2022/11/10 07:40:59;;;;;;;4.33;3.20;;;6.50;99.90;7.80;97473.00;;;;5109307;28;20191;-68
2022/11/10 07:43:48;;;;;;;3.60;2.90;;;6.60;99.90;7.50;97477.00;;;;5095995;28;20198;-67
2022/11/10 07:46:37;;;;;;;6.57;3.73;;;6.60;99.90;7.70;97485.00;;;;5095024;28;20199;-68
2022/11/10 07:49:26;;;;;;;8.10;3.13;;;6.60;99.90;8.10;97491.00;;;;5108217;27;20218;-69
2022/11/10 07:52:15;;;;;;;5.03;4.40;;;6.70;99.90;8.30;97495.00;;;;5101403;27;20199;-68
2022/11/10 07:55:07;;;;;;;7.20;4.63;;;6.80;99.90;8.50;97502.00;;;;5100398;27;20207;-68
2022/11/10 07:57:58;;;;;;;5.97;4.17;;;7.00;99.90;8.70;97503.00;;;;5099756;28;20252;-68
2022/11/10 08:00:47;;;;;;;6.20;4.20;;;7.00;99.90;8.50;97510.00;;;;5096832;27;20211;-67
2022/11/10 08:03:36;;;;;;;7.00;4.23;;;7.10;99.90;8.50;97515.00;;;;5105389;28;20206;-67
2022/11/10 08:06:24;;;;;;;6.53;3.87;;;7.20;99.90;8.60;97519.00;;;;5106909;28;20253;-67
2022/11/10 08:09:13;;;;;;;11.00;5.13;;;7.20;99.90;8.50;97519.00;;;;5096787;28;20226;-67
2022/11/10 08:12:04;;;;;;;6.80;3.60;;;7.30;99.90;8.60;97526.00;;;;5097788;27;20202;-68
2022/11/10 08:14:53;;;;;;;6.90;4.47;;;7.30;99.90;8.80;97531.00;;;;5092205;28;20632;-68
2022/11/10 08:17:41;;;;;;;6.90;4.50;;;7.30;99.90;8.80;97533.00;;;;5099190;28;20191;-67
2022/11/10 08:20:30;;;;;;;11.43;5.00;;;7.50;99.90;8.50;97542.00;;;;5103711;28;20211;-67
2022/11/10 08:23:19;;;;;;;5.83;4.23;;;7.50;99.90;8.70;97546.00;;;;5111124;28;20581;-67
2022/11/10 08:26:08;;;;;;;9.50;3.80;;;7.50;99.90;8.60;97545.00;;;;5100978;28;20265;-66
2022/11/10 08:28:58;;;;;;;6.10;4.37;;;7.50;99.90;8.80;97555.00;;;;5104268;28;20265;-67
2022/11/10 08:31:47;;;;;;;4.30;3.33;;;7.50;99.90;8.40;97559.00;;;;5110953;28;20191;-68
2022/11/10 08:34:35;;;;;;;6.73;4.33;;;7.50;99.90;8.40;97568.00;;;;5099488;28;20200;-67
2022/11/10 08:37:26;;;;;;;12.07;6.90;;;7.60;99.90;8.40;97573.00;;;;5101439;27;20194;-67
2022/11/10 08:40:15;;;;;;;6.33;5.03;;;7.40;99.90;8.50;97582.00;;;;5106938;28;20276;-68
2022/11/10 08:43:06;;;;;;;5.80;4.87;;;7.50;99.90;8.70;97592.00;;;;5105678;28;20634;-67
2022/11/10 08:45:56;;;;;;;7.67;5.07;;;7.50;99.90;8.80;97581.00;;;;5101756;28;20251;-68
2022/11/10 08:48:45;;;;;;;8.87;4.87;;;7.60;99.90;8.70;97594.00;;;;5106284;28;20703;-67
2022/11/10 08:51:34;;;;;;;8.97;5.13;;;7.60;99.90;8.70;97596.00;;;;5099824;28;20214;-68
2022/11/10 08:54:26;;;;;;;5.13;3.57;;;7.60;99.90;8.60;97610.00;;;;5109035;28;20206;-69
2022/11/10 08:57:15;;;;;;;8.07;4.87;;;7.60;99.90;8.50;97623.00;;;;5111146;28;20234;-67
2022/11/10 09:00:05;;;;;;;9.00;5.17;;;7.50;99.90;8.90;97622.00;;;;5107560;28;20755;-67
2022/11/10 09:02:55;;;;;;;8.23;4.67;;;7.60;99.90;9.10;97627.00;;;;5110441;28;20302;-67
2022/11/10 09:05:45;;;;;;;6.27;4.37;;;7.60;99.90;9.30;97640.00;;;;5107034;28;20433;-67
2022/11/10 09:08:33;;;;;;;13.90;5.53;;;7.80;99.90;9.20;97643.00;;;;5110704;28;20230;-67
2022/11/10 09:11:22;;;;;;;6.80;4.43;;;7.80;99.90;9.40;97662.00;;;;5102113;28;20222;-67
2022/11/10 09:14:11;;;;;;;5.90;4.83;;;7.90;99.90;9.50;97672.00;;;;5107046;28;20202;-66
2022/11/10 09:16:59;;;;;;;6.30;4.67;;;7.90;99.90;9.40;97670.00;;;;5110442;28;20319;-67
2022/11/10 09:19:49;;;;;;;6.90;4.93;;;7.90;99.90;9.30;97674.00;;;;5109308;28;20311;-67
2022/11/10 09:22:39;;;;;;;10.53;5.80;;;8.00;99.90;9.20;97674.00;;;;5101743;28;20206;-67
2022/11/10 09:25:28;;;;;;;7.40;5.67;;;8.00;99.90;9.20;97684.00;;;;5106103;28;20264;-67
2022/11/10 09:28:17;;;;;;;7.90;5.80;;;7.90;99.90;9.20;97686.00;;;;5104724;28;20629;-67
2022/11/10 09:31:06;;;;;;;8.70;5.43;;;7.90;99.90;9.20;97689.00;;;;5096176;28;20725;-67
2022/11/10 09:33:55;;;;;;;7.57;4.67;;;7.90;99.90;9.30;97699.00;;;;5095989;28;20233;-67
2022/11/10 09:36:45;;;;;;;6.70;5.13;;;8.00;99.90;9.50;97707.00;;;;5103829;27;20202;-67
2022/11/10 09:39:34;;;;;;;6.60;5.20;;;8.00;99.90;9.60;97709.00;;;;5099057;28;20231;-67
2022/11/10 09:42:34;;;;;;;8.73;5.07;;;8.00;99.90;9.60;97703.00;;;;5089951;28;20238;-67
2022/11/10 09:45:26;;;;;;;9.00;4.40;;;8.10;99.90;9.60;97710.00;;;;5097364;28;20676;-67
2022/11/10 09:48:19;;;;;;;5.47;4.40;;;9.40;99.90;9.40;97719.00;;;;5097858;28;20261;-67
2022/11/10 09:51:17;;;;;;;11.40;5.90;;;8.10;99.90;9.40;97710.00;;;;5092932;27;20233;-66
2022/11/10 09:54:25;;;;;;;8.33;6.47;;;8.10;99.90;9.70;97713.00;;;;5103314;27;20271;-66
2022/11/10 09:57:17;;;;;;;6.33;4.80;;;8.20;99.90;9.90;97728.00;;;;5107563;27;20211;-66
2022/11/10 10:00:10;;;;;;;9.17;5.70;;;8.20;99.90;9.70;97728.00;;;;5087049;28;20268;-67
2022/11/10 10:03:02;;;;;;;12.33;6.00;;;8.20;99.90;9.70;97731.00;;;;5089935;28;20249;-67
2022/11/10 10:06:06;;;;;;;9.77;5.77;;;8.20;99.90;9.60;97731.00;;;;5095773;28;20220;-66
2022/11/10 10:09:06;;;;;;;16.37;8.60;;;8.30;99.90;9.60;97730.00;;;;5108141;28;20727;-67
2022/11/10 10:12:09;;;;;;;16.47;8.40;;;8.30;99.90;9.70;97737.00;;;;5107204;28;20233;-67
2022/11/10 10:15:13;;;;;;;14.47;7.77;;;8.30;99.90;9.90;97735.00;;;;5105207;28;20213;-67
2022/11/10 10:18:24;;;;;;;14.03;8.73;;;8.30;99.90;9.90;97738.00;;;;5108884;28;20873;-67
2022/11/10 10:21:38;;;;;;;23.53;15.33;;;8.30;99.90;9.80;97742.00;;;;5096523;28;20203;-66
2022/11/10 10:24:29;;;;;;;20.47;13.67;;;8.40;99.90;9.80;97747.00;;;;5106595;28;20198;-67
2022/11/10 10:27:24;;;;;;;16.43;11.30;;;8.40;99.90;10.00;97738.00;;;;5105978;28;20194;-67
2022/11/10 10:30:16;;;;;;;17.47;9.77;;;8.40;99.90;10.10;97739.00;;;;5107167;28;20227;-67
2022/11/10 10:33:15;;;;;;;11.00;7.73;;;8.50;99.90;10.10;97742.00;;;;5109000;28;20275;-67
2022/11/10 10:36:15;;;;;;;9.17;6.73;;;8.50;99.90;9.90;97739.00;;;;5099222;28;20207;-67
2022/11/10 10:39:10;;;;;;;17.00;11.00;;;8.60;99.90;9.70;97742.00;;;;5092083;28;20226;-67
2022/11/10 10:41:58;;;;;;;13.17;10.13;;;8.50;99.90;9.90;97743.00;;;;5103622;28;20226;-67
2022/11/10 10:45:21;;;;;;;20.33;10.23;;;8.50;99.90;10.20;97752.00;;;;5105623;28;20247;-67
2022/11/10 10:48:27;;;;;;;12.20;7.73;;;8.80;99.90;10.30;97752.00;;;;5104941;28;20206;-66
2022/11/10 10:51:29;;;;;;;9.57;7.67;;;8.60;99.90;10.20;97752.00;;;;5093321;28;20214;-67
2022/11/10 10:54:27;;;;;;;9.57;7.50;;;8.60;99.90;10.30;97758.00;;;;5100972;28;20266;-67
2022/11/10 10:57:22;;;;;;;13.43;7.53;;;8.70;99.90;10.40;97758.00;;;;5088338;28;20203;-67
2022/11/10 11:00:23;;;;;;;15.10;8.23;;;8.70;99.90;10.40;97759.00;;;;5087517;28;20215;-67
2022/11/10 11:03:24;;;;;;;17.13;7.87;;;8.70;99.90;10.20;97760.00;;;;5089014;28;20199;-67
2022/11/10 11:06:21;;;;;;;10.50;7.30;;;8.80;99.90;10.10;97755.00;;;;5099738;28;20289;-67
2022/11/10 11:09:18;;;;;;;11.20;8.13;;;8.80;99.90;10.10;97754.00;;;;5104127;28;20712;-67
2022/11/10 11:12:25;;;;;;;13.10;8.53;;;8.80;99.90;10.20;97765.00;;;;5108382;28;20222;-67
2022/11/10 11:15:27;;;;;;;10.23;8.37;;;8.80;99.90;9.90;97765.00;;;;5105452;28;20705;-66
2022/11/10 11:18:19;;;;;;;12.97;8.23;;;8.70;99.90;10.10;97769.00;;;;5100352;27;20226;-67
2022/11/10 11:21:19;;;;;;;11.67;7.87;;;8.70;99.90;10.00;97767.00;;;;5098975;28;20202;-67
2022/11/10 11:24:21;;;;;;;12.17;8.37;;;8.70;99.90;10.30;97781.00;;;;5092484;28;20337;-67
2022/11/10 11:27:18;;;;;;;11.63;8.63;;;8.70;99.90;10.40;97773.00;;;;5109176;28;20260;-67
2022/11/10 11:30:11;;;;;;;12.63;7.80;;;8.80;99.90;10.40;97774.00;;;;5104337;28;20794;-67
2022/11/10 11:33:33;;;;;;;11.13;8.03;;;8.80;99.90;10.40;97784.00;;;;5110169;28;20194;-67
2022/11/10 11:36:34;;;;;;;15.40;8.73;;;8.90;99.90;10.10;97773.00;;;;5105037;28;20288;-67
2022/11/10 11:39:37;;;;;;;16.40;8.77;;;8.90;99.90;10.20;97779.00;;;;5102178;27;20218;-66
2022/11/10 11:42:42;;;;;;;13.47;7.80;;;8.90;99.90;10.30;97782.00;;;;5105923;28;20210;-67
2022/11/10 11:45:46;;;;;;;14.40;8.53;;;8.80;99.90;10.30;97781.00;;;;5102161;27;20198;-67
2022/11/10 11:48:51;;;;;;;10.77;7.83;;;8.90;99.90;10.40;97791.00;;;;5101990;28;20693;-66
2022/11/10 11:51:53;;;;;;;11.97;7.70;;;9.00;99.90;10.40;97787.00;;;;5101249;28;20230;-67
2022/11/10 11:55:05;;;;;;;13.97;8.10;;;9.00;99.90;10.60;97786.00;;;;5110424;28;20292;-67
2022/11/10 11:58:27;;;;;;;18.70;10.27;;;9.00;99.90;10.90;97782.00;;;;5110593;28;20285;-67
2022/11/10 12:01:46;;;;;;;16.97;11.13;;;9.10;99.90;11.20;97791.00;;;;5102616;28;20619;-67
2022/11/10 12:04:45;;;;;;;21.13;9.97;;;9.20;99.90;11.00;97789.00;;;;5111117;28;20623;-66
2022/11/10 12:07:49;;;;;;;13.03;8.03;;;9.30;99.90;11.20;97795.00;;;;5105266;27;20235;-66
2022/11/10 12:10:48;;;;;;;15.70;6.97;;;9.40;99.90;11.10;97796.00;;;;5111445;27;20191;-67
2022/11/10 12:13:47;;;;;;;16.57;7.53;;;9.40;99.90;10.90;97793.00;;;;5102952;28;20207;-67
2022/11/10 12:16:37;;;;;;;13.43;8.20;;;9.50;99.90;10.50;97794.00;;;;5108096;27;20239;-67
2022/11/10 12:19:36;;;;;;;13.80;7.60;;;9.40;99.90;10.40;97799.00;;;;5116617;27;20715;-67
2022/11/10 12:22:39;;;;;;;12.10;9.63;;;9.30;99.90;10.80;97800.00;;;;5101580;28;20636;-67
2022/11/10 12:25:36;;;;;;;13.20;8.77;;;9.30;99.90;11.00;97803.00;;;;5109836;27;20246;-67
2022/11/10 12:28:28;;;;;;;15.03;9.30;;;9.30;99.90;11.20;97791.00;;;;5094141;28;20235;-67
2022/11/10 12:31:22;;;;;;;11.23;8.03;;;9.40;99.90;11.20;97801.00;;;;5107008;28;20230;-67
2022/11/10 12:34:28;;;;;;;14.77;8.67;;;9.40;99.90;11.20;97801.00;;;;5111255;27;20237;-67
2022/11/10 12:37:22;;;;;;;11.50;7.43;;;9.50;99.90;11.20;97806.00;;;;5109688;27;20198;-67
2022/11/10 12:40:19;;;;;;;13.90;9.27;;;9.50;99.90;11.10;97811.00;;;;5105289;27;20223;-67
2022/11/10 12:43:18;;;;;;;8.93;7.17;;;9.50;99.90;11.10;97811.00;;;;5101184;28;20575;-67
2022/11/10 12:46:12;;;;;;;12.10;7.27;;;9.50;99.90;10.90;97823.00;;;;5104166;28;20678;-66
2022/11/10 12:49:13;;;;;;;12.30;8.60;;;9.50;99.90;10.90;97828.00;;;;5105161;28;20284;-67
2022/11/10 12:52:12;;;;;;;9.97;7.70;;;9.50;99.90;11.00;97827.00;;;;5108538;28;20294;-67
2022/11/10 12:55:00;;;;;;;11.07;8.30;;;9.50;99.90;10.90;97834.00;;;;5094894;28;20196;-67
2022/11/10 12:57:51;;;;;;;15.53;8.67;;;9.50;99.90;10.80;97834.00;;;;5104133;28;20631;-67
2022/11/10 13:00:44;;;;;;;11.10;8.07;;;9.50;99.90;11.00;97842.00;;;;5104736;28;20207;-67
2022/11/10 13:03:36;;;;;;;17.57;10.03;;;9.50;99.90;10.90;97834.00;;;;5097943;28;20554;-67
2022/11/10 13:06:27;;;;;;;11.77;8.77;;;9.50;99.90;11.20;97838.00;;;;5106766;28;20277;-67
2022/11/10 13:09:29;;;;;;;14.23;9.00;;;9.50;99.90;11.40;97829.00;;;;5102336;27;20310;-67
2022/11/10 13:12:20;;;;;;;10.37;7.53;;;9.60;99.90;11.50;97831.00;;;;5108236;27;20250;-67
2022/11/10 13:15:49;;;;;;;10.57;7.63;;;9.70;99.90;11.00;97825.00;;;;5106186;28;20206;-67
2022/11/10 13:19:00;;;;;;;16.50;9.07;;;9.70;99.90;11.50;97844.00;;;;5108724;28;20705;-67